Time;durP1;ratioP1;P1;durP2;ratioP2;P2;SDS_P1;SDS_P2;PMS_P1;PMS_P2;Temp;Humidity;BMP_temperature;BMP_pressure;BME280_temperature;BME280_humidity;BME280_pressure;Samples;Min_cycle;Max_cycle;Signal;HPM_P1;HPM_P2
2021/06/30 00:00:15;;;;;;;0.53;0.33;;;18.70;95.50;;;;;;6227477;28;20245;-71
2021/06/30 00:03:22;;;;;;;1.03;0.60;;;18.70;95.30;;;;;;6244093;28;20699;-71
2021/06/30 00:06:30;;;;;;;0.27;0.20;;;18.70;95.30;;;;;;6243679;28;20228;-71
2021/06/30 00:09:38;;;;;;;0.97;0.50;;;18.70;95.00;;;;;;6245461;28;20548;-71
2021/06/30 00:12:45;;;;;;;0.67;0.60;;;18.70;95.00;;;;;;6244059;28;20196;-71
2021/06/30 00:15:54;;;;;;;1.00;0.30;;;18.60;94.70;;;;;;6243480;28;20230;-71
2021/06/30 00:19:02;;;;;;;0.80;0.40;;;18.60;94.90;;;;;;6245473;28;20263;-71
2021/06/30 00:22:09;;;;;;;0.37;0.30;;;18.60;95.00;;;;;;6243461;28;20568;-71
2021/06/30 00:25:17;;;;;;;2.00;0.47;;;18.70;95.10;;;;;;6245443;28;20187;-71
2021/06/30 00:28:24;;;;;;;0.40;0.40;;;18.60;94.70;;;;;;6251831;28;20216;-71
2021/06/30 00:31:26;;;;;;;2.00;0.30;;;18.60;94.60;;;;;;6270974;28;20340;-71
2021/06/30 00:34:34;;;;;;;1.13;0.40;;;18.60;94.30;;;;;;6252146;28;20204;-71
2021/06/30 00:37:36;;;;;;;1.57;0.40;;;18.60;94.20;;;;;;6235517;28;20197;-71
2021/06/30 00:40:45;;;;;;;0.70;0.30;;;18.60;94.20;;;;;;6270554;28;20634;-71
2021/06/30 00:43:52;;;;;;;1.10;0.30;;;18.60;94.10;;;;;;6273435;28;20688;-71
2021/06/30 00:47:00;;;;;;;0.30;0.30;;;18.60;94.10;;;;;;6274943;28;20255;-71
2021/06/30 00:50:08;;;;;;;0.90;0.30;;;18.60;94.10;;;;;;6257828;28;20214;-71
2021/06/30 00:53:15;;;;;;;0.93;0.43;;;18.60;94.00;;;;;;6256775;28;20184;-71
2021/06/30 00:56:25;;;;;;;0.30;0.30;;;18.60;93.70;;;;;;6274625;28;20737;-71
2021/06/30 00:59:33;;;;;;;1.03;0.40;;;18.70;94.00;;;;;;6257169;28;20231;-71
2021/06/30 01:02:40;;;;;;;0.37;0.33;;;18.70;93.70;;;;;;6256446;28;20184;-71
2021/06/30 01:05:43;;;;;;;0.40;0.40;;;18.70;93.70;;;;;;6273692;28;20231;-71
2021/06/30 01:08:50;;;;;;;0.30;0.30;;;18.70;93.30;;;;;;6272969;28;20191;-71
2021/06/30 01:11:52;;;;;;;0.30;0.30;;;18.70;93.50;;;;;;6273990;28;20194;-71
2021/06/30 01:15:07;;;;;;;0.70;0.33;;;18.70;93.40;;;;;;6273199;28;20215;-71
2021/06/30 01:18:14;;;;;;;1.67;0.30;;;18.70;93.40;;;;;;6279540;28;20314;-71
2021/06/30 01:21:21;;;;;;;1.17;0.60;;;18.70;93.30;;;;;;6247405;28;20637;-71
2021/06/30 01:24:30;;;;;;;0.50;0.50;;;18.70;93.40;;;;;;6247772;28;20745;-71
2021/06/30 01:27:37;;;;;;;1.67;0.60;;;18.60;93.40;;;;;;6255297;28;20222;-71
2021/06/30 01:30:46;;;;;;;0.40;0.40;;;18.60;93.50;;;;;;6255594;28;20647;-71
2021/06/30 01:33:48;;;;;;;3.90;0.47;;;18.60;93.40;;;;;;6255932;28;20200;-71
2021/06/30 01:36:55;;;;;;;1.00;0.40;;;18.60;93.30;;;;;;6273063;28;20219;-71
2021/06/30 01:40:06;;;;;;;0.30;0.30;;;18.50;93.40;;;;;;6273611;28;20691;-71
2021/06/30 01:43:08;;;;;;;0.60;0.30;;;18.50;93.30;;;;;;6255220;28;20175;-71
2021/06/30 01:46:15;;;;;;;0.30;0.30;;;18.40;93.70;;;;;;6273584;28;20242;-71
2021/06/30 01:49:22;;;;;;;0.57;0.40;;;18.40;93.70;;;;;;6273399;28;20270;-71
2021/06/30 01:52:29;;;;;;;1.03;0.40;;;18.40;94.00;;;;;;6255463;28;20191;-71
2021/06/30 01:55:32;;;;;;;1.17;0.50;;;18.40;94.20;;;;;;6272420;28;20330;-71
2021/06/30 01:58:40;;;;;;;1.27;0.40;;;18.40;94.20;;;;;;6254698;28;20581;-71
2021/06/30 02:01:47;;;;;;;0.60;0.40;;;18.40;94.10;;;;;;6272829;28;20194;-71
2021/06/30 02:05:14;;;;;;;0.50;0.47;;;18.30;94.30;;;;;;6246605;28;20239;-71
2021/06/30 02:08:21;;;;;;;0.30;0.30;;;18.20;94.50;;;;;;6248267;28;20181;-71
2021/06/30 02:11:25;;;;;;;0.67;0.30;;;18.20;94.50;;;;;;6246721;28;20568;-71
2021/06/30 02:14:32;;;;;;;1.30;0.40;;;18.20;94.60;;;;;;6246286;28;20504;-71
2021/06/30 02:17:39;;;;;;;0.73;0.30;;;18.20;94.60;;;;;;6246753;28;20267;-71
2021/06/30 02:20:46;;;;;;;0.40;0.40;;;18.20;94.80;;;;;;6246100;28;20191;-71
2021/06/30 02:23:53;;;;;;;0.50;0.50;;;18.10;94.70;;;;;;6246566;28;20176;-71
2021/06/30 02:26:55;;;;;;;0.47;0.30;;;18.20;94.90;;;;;;6247123;28;20211;-71
2021/06/30 02:30:06;;;;;;;1.07;0.60;;;18.20;95.10;;;;;;6231438;28;20287;-71
2021/06/30 02:33:13;;;;;;;0.97;0.40;;;18.10;95.50;;;;;;6248259;28;20187;-71
2021/06/30 02:36:21;;;;;;;1.00;0.47;;;18.10;95.60;;;;;;6247642;28;20200;-71
2021/06/30 02:39:28;;;;;;;0.40;0.40;;;18.00;95.30;;;;;;6247855;28;20173;-71
2021/06/30 02:42:36;;;;;;;0.50;0.50;;;18.00;95.30;;;;;;6246005;28;20188;-71
2021/06/30 02:45:43;;;;;;;0.43;0.43;;;18.00;95.60;;;;;;6222641;28;20219;-71
2021/06/30 02:48:50;;;;;;;0.67;0.50;;;17.90;95.50;;;;;;6222775;28;20204;-71
2021/06/30 02:51:57;;;;;;;0.30;0.30;;;17.90;95.90;;;;;;6222551;28;20558;-71
2021/06/30 02:55:07;;;;;;;0.40;0.40;;;17.90;95.80;;;;;;6222799;28;20201;-71
2021/06/30 02:58:14;;;;;;;0.50;0.50;;;17.90;96.00;;;;;;6233523;28;20215;-71
2021/06/30 03:01:21;;;;;;;0.40;0.40;;;17.80;95.90;;;;;;6246909;28;20168;-71
2021/06/30 03:04:28;;;;;;;0.67;0.40;;;17.80;96.10;;;;;;6252579;28;20230;-71
2021/06/30 03:07:35;;;;;;;0.40;0.40;;;17.80;96.10;;;;;;6253634;28;20167;-71
2021/06/30 03:10:42;;;;;;;0.40;0.40;;;17.80;96.20;;;;;;6254337;28;20168;-71
2021/06/30 03:13:50;;;;;;;3.10;0.50;;;17.80;96.40;;;;;;6270908;28;20612;-71
2021/06/30 03:16:57;;;;;;;1.10;0.37;;;17.80;96.40;;;;;;6271136;28;20203;-71
2021/06/30 03:19:59;;;;;;;0.40;0.40;;;17.80;96.40;;;;;;6270812;28;20259;-71
2021/06/30 03:23:06;;;;;;;1.30;0.47;;;17.70;96.60;;;;;;6253550;28;20741;-71
2021/06/30 03:26:13;;;;;;;0.40;0.40;;;17.70;96.60;;;;;;6252376;28;20227;-71
2021/06/30 03:29:21;;;;;;;0.30;0.30;;;17.80;96.70;;;;;;6270540;28;20191;-71
2021/06/30 03:32:28;;;;;;;2.00;0.40;;;17.80;96.60;;;;;;6270590;28;20329;-71
2021/06/30 03:35:35;;;;;;;0.53;0.40;;;17.80;96.80;;;;;;6270047;28;20231;-71
2021/06/30 03:38:42;;;;;;;0.53;0.40;;;17.70;97.00;;;;;;6270532;28;20222;-71
2021/06/30 03:41:49;;;;;;;0.33;0.33;;;17.70;97.10;;;;;;6251989;28;20180;-71
2021/06/30 03:44:52;;;;;;;0.33;0.33;;;17.70;97.20;;;;;;6270511;28;20666;-71
2021/06/30 03:48:00;;;;;;;1.43;0.40;;;17.70;97.30;;;;;;6252010;28;20655;-71
2021/06/30 03:51:07;;;;;;;0.70;0.40;;;17.70;97.30;;;;;;6253506;28;20188;-71
2021/06/30 03:54:26;;;;;;;0.40;0.40;;;17.70;97.30;;;;;;6243755;28;20557;-71
2021/06/30 03:57:33;;;;;;;0.40;0.40;;;17.70;97.40;;;;;;6251235;28;20210;-71
2021/06/30 04:00:40;;;;;;;0.40;0.40;;;17.70;97.50;;;;;;6269765;28;20183;-71
2021/06/30 04:03:55;;;;;;;0.60;0.60;;;17.70;97.50;;;;;;6269418;28;20246;-71
2021/06/30 04:07:03;;;;;;;1.20;0.50;;;17.70;97.80;;;;;;6251960;28;20247;-71
2021/06/30 04:10:10;;;;;;;0.40;0.40;;;17.70;98.00;;;;;;6252630;28;20172;-71
2021/06/30 04:13:17;;;;;;;0.50;0.40;;;17.60;97.80;;;;;;6252185;28;20700;-71
2021/06/30 04:16:25;;;;;;;1.10;0.60;;;17.60;97.90;;;;;;6252903;28;20207;-71
2021/06/30 04:19:32;;;;;;;0.60;0.40;;;17.70;98.00;;;;;;6252300;28;20180;-71
2021/06/30 04:22:39;;;;;;;0.60;0.60;;;17.70;98.00;;;;;;6269721;28;20173;-71
2021/06/30 04:25:41;;;;;;;0.90;0.40;;;17.70;98.10;;;;;;6251635;28;20605;-71
2021/06/30 04:28:48;;;;;;;2.33;0.50;;;17.70;98.20;;;;;;6269661;28;20192;-71
2021/06/30 04:31:55;;;;;;;0.60;0.50;;;17.80;98.20;;;;;;6269524;28;20179;-71
2021/06/30 04:35:04;;;;;;;1.50;0.70;;;17.80;98.20;;;;;;6269172;28;20217;-71
2021/06/30 04:38:12;;;;;;;2.17;0.53;;;17.80;98.00;;;;;;6251559;28;20333;-71
2021/06/30 04:41:19;;;;;;;0.83;0.47;;;17.80;98.00;;;;;;6269839;28;20627;-71
2021/06/30 04:44:26;;;;;;;0.60;0.60;;;17.80;98.10;;;;;;6251685;28;20188;-71
2021/06/30 04:47:33;;;;;;;1.23;0.70;;;17.90;98.10;;;;;;6252235;28;20211;-71
2021/06/30 04:50:41;;;;;;;0.67;0.43;;;17.90;98.20;;;;;;6252564;28;20172;-71
2021/06/30 04:53:50;;;;;;;1.53;0.60;;;17.90;98.00;;;;;;6269371;28;20226;-71
2021/06/30 04:56:57;;;;;;;0.80;0.70;;;17.90;98.30;;;;;;6251920;28;20204;-71
2021/06/30 05:00:10;;;;;;;0.70;0.67;;;17.90;98.10;;;;;;6252407;28;20258;-71
2021/06/30 05:03:17;;;;;;;1.00;0.80;;;17.90;98.20;;;;;;6250692;28;20267;-71
2021/06/30 05:06:24;;;;;;;1.47;0.60;;;18.00;98.00;;;;;;6269082;28;20223;-71
2021/06/30 05:09:26;;;;;;;1.07;0.50;;;18.00;98.10;;;;;;6250691;28;20223;-71
2021/06/30 05:12:34;;;;;;;0.57;0.57;;;18.10;97.90;;;;;;6251089;28;20203;-71
2021/06/30 05:15:41;;;;;;;0.60;0.60;;;18.10;97.80;;;;;;6269082;28;20195;-71
2021/06/30 05:18:48;;;;;;;0.57;0.40;;;18.10;97.90;;;;;;6268995;28;20180;-71
2021/06/30 05:21:56;;;;;;;0.40;0.40;;;18.10;97.90;;;;;;6268781;28;20171;-71
2021/06/30 05:25:03;;;;;;;1.23;0.57;;;18.10;97.90;;;;;;6250837;28;20202;-71
2021/06/30 05:28:11;;;;;;;0.90;0.60;;;18.20;98.00;;;;;;6252005;28;20658;-71
2021/06/30 05:31:18;;;;;;;0.50;0.50;;;18.30;97.80;;;;;;6272781;28;20172;-71
2021/06/30 05:34:25;;;;;;;0.90;0.40;;;18.40;97.40;;;;;;6239342;28;20565;-71
2021/06/30 05:37:32;;;;;;;1.20;0.50;;;18.50;97.40;;;;;;6273053;28;20277;-71
2021/06/30 05:40:39;;;;;;;0.60;0.60;;;18.70;97.30;;;;;;6239158;28;20192;-71
2021/06/30 05:43:46;;;;;;;0.80;0.50;;;18.90;97.00;;;;;;6273219;28;20195;-71
2021/06/30 05:46:49;;;;;;;1.67;0.60;;;19.00;96.50;;;;;;6255030;28;20281;-71
2021/06/30 05:49:56;;;;;;;0.50;0.50;;;19.10;96.50;;;;;;6272938;28;20584;-71
2021/06/30 05:53:03;;;;;;;0.60;0.60;;;19.10;95.90;;;;;;6272870;28;20175;-71
2021/06/30 05:56:10;;;;;;;0.70;0.53;;;19.10;95.90;;;;;;6272412;28;20192;-71
2021/06/30 05:59:18;;;;;;;1.40;0.70;;;19.10;96.00;;;;;;6255822;28;20679;-71
2021/06/30 06:02:25;;;;;;;0.50;0.50;;;19.10;96.00;;;;;;6272429;28;20689;-71
2021/06/30 06:05:32;;;;;;;0.50;0.50;;;19.00;96.00;;;;;;6238819;28;20246;-71
2021/06/30 06:08:40;;;;;;;0.57;0.57;;;19.00;96.10;;;;;;6272246;28;20172;-71
2021/06/30 06:11:47;;;;;;;1.53;0.63;;;19.00;96.10;;;;;;6272675;28;20203;-71
2021/06/30 06:14:55;;;;;;;0.70;0.70;;;19.00;96.00;;;;;;6255607;28;20168;-71
2021/06/30 06:18:05;;;;;;;0.77;0.50;;;19.00;95.90;;;;;;6272053;28;20199;-71
2021/06/30 06:21:13;;;;;;;0.93;0.60;;;19.00;95.90;;;;;;6272258;28;20176;-71
2021/06/30 06:24:20;;;;;;;0.60;0.50;;;19.00;96.00;;;;;;6272016;28;20172;-71
2021/06/30 06:27:27;;;;;;;0.50;0.50;;;19.00;95.80;;;;;;6255129;28;20191;-71
2021/06/30 06:30:34;;;;;;;1.63;0.70;;;19.10;95.90;;;;;;6254320;28;20191;-71
2021/06/30 06:33:41;;;;;;;0.83;0.50;;;19.10;95.50;;;;;;6254775;28;20551;-71
2021/06/30 06:36:43;;;;;;;1.00;0.57;;;19.10;96.00;;;;;;6271898;28;20605;-71
2021/06/30 06:39:51;;;;;;;0.50;0.50;;;19.20;95.50;;;;;;6271331;28;20180;-71
2021/06/30 06:42:53;;;;;;;0.77;0.60;;;19.30;95.50;;;;;;6271673;28;20213;-71
2021/06/30 06:46:01;;;;;;;2.87;0.77;;;19.40;95.10;;;;;;6253554;28;20198;-71
2021/06/30 06:49:09;;;;;;;1.80;0.50;;;19.40;95.40;;;;;;6254738;28;20195;-71
2021/06/30 06:52:16;;;;;;;0.80;0.50;;;19.50;94.90;;;;;;6254658;28;20258;-71
2021/06/30 06:55:24;;;;;;;0.73;0.60;;;19.50;95.00;;;;;;6253024;28;20187;-71
2021/06/30 06:58:31;;;;;;;1.00;0.87;;;19.50;95.10;;;;;;6253479;28;20242;-72
2021/06/30 07:01:38;;;;;;;0.60;0.60;;;19.60;94.60;;;;;;6270643;28;20172;-71
2021/06/30 07:04:45;;;;;;;2.00;0.60;;;19.60;94.70;;;;;;6254126;28;20227;-71
2021/06/30 07:07:53;;;;;;;0.67;0.50;;;19.60;94.80;;;;;;6270727;28;20180;-71
2021/06/30 07:10:55;;;;;;;1.47;0.90;;;19.70;94.60;;;;;;6253390;28;20262;-71
2021/06/30 07:13:57;;;;;;;0.50;0.30;;;19.60;94.60;;;;;;6270957;28;20344;-71
2021/06/30 07:17:04;;;;;;;0.83;0.60;;;19.60;94.50;;;;;;6270293;28;20559;-71
2021/06/30 07:20:11;;;;;;;0.70;0.70;;;19.60;94.60;;;;;;6253992;28;20559;-71
2021/06/30 07:23:19;;;;;;;0.60;0.60;;;19.60;94.50;;;;;;6253500;28;20172;-71
2021/06/30 07:26:26;;;;;;;0.93;0.70;;;19.60;94.20;;;;;;6270829;28;20180;-71
2021/06/30 07:29:33;;;;;;;0.60;0.60;;;19.70;94.10;;;;;;6270734;28;20329;-71
2021/06/30 07:32:40;;;;;;;0.80;0.80;;;19.80;94.30;;;;;;6251938;28;20279;-71
2021/06/30 07:35:48;;;;;;;0.60;0.60;;;19.90;94.30;;;;;;6270460;28;20188;-71
2021/06/30 07:38:55;;;;;;;3.20;0.70;;;19.90;94.10;;;;;;6270035;28;20172;-71
2021/06/30 07:42:02;;;;;;;1.13;0.70;;;19.90;93.60;;;;;;6253495;28;20171;-71
2021/06/30 07:45:10;;;;;;;0.70;0.70;;;20.00;93.70;;;;;;6269945;28;20626;-71
2021/06/30 07:48:12;;;;;;;0.80;0.60;;;20.20;94.10;;;;;;6270080;28;20714;-71
2021/06/30 07:51:14;;;;;;;0.77;0.60;;;20.20;93.90;;;;;;6235899;28;20199;-71
2021/06/30 07:54:17;;;;;;;1.87;0.70;;;20.20;93.50;;;;;;6251599;28;20305;-71
2021/06/30 07:57:20;;;;;;;1.53;0.80;;;20.20;93.90;;;;;;6269966;28;20214;-71
2021/06/30 08:00:22;;;;;;;0.70;0.70;;;20.20;93.60;;;;;;6269329;28;20191;-71
2021/06/30 08:03:24;;;;;;;0.70;0.70;;;20.10;93.70;;;;;;6270091;28;20214;-71
2021/06/30 08:06:27;;;;;;;1.70;0.60;;;20.00;94.00;;;;;;6265054;28;20231;-71
2021/06/30 08:09:31;;;;;;;1.03;0.73;;;20.00;94.00;;;;;;6270152;28;20223;-71
2021/06/30 08:12:34;;;;;;;0.90;0.87;;;19.90;94.10;;;;;;6268651;28;20198;-71
2021/06/30 08:15:37;;;;;;;1.90;0.83;;;19.90;94.30;;;;;;6268205;28;20666;-71
2021/06/30 08:18:39;;;;;;;0.83;0.70;;;19.90;94.30;;;;;;6268498;28;20200;-71
2021/06/30 08:21:41;;;;;;;1.20;0.70;;;19.90;94.40;;;;;;6269509;28;20711;-71
2021/06/30 08:24:44;;;;;;;1.23;0.73;;;19.90;94.40;;;;;;6267991;28;20194;-71
2021/06/30 08:27:46;;;;;;;0.70;0.70;;;19.90;94.40;;;;;;6260649;28;20195;-71
2021/06/30 08:30:49;;;;;;;1.57;0.77;;;19.90;94.20;;;;;;6243404;28;20192;-71
2021/06/30 08:33:52;;;;;;;0.80;0.80;;;19.80;93.80;;;;;;6243933;28;20196;-71
2021/06/30 08:36:59;;;;;;;1.17;0.83;;;19.90;93.50;;;;;;6244442;28;20807;-71
2021/06/30 08:40:02;;;;;;;0.90;0.90;;;19.90;93.30;;;;;;6244883;28;20233;-71
2021/06/30 08:43:07;;;;;;;0.80;0.80;;;19.90;93.10;;;;;;6244775;28;20196;-71
2021/06/30 08:46:09;;;;;;;1.00;1.00;;;19.90;93.30;;;;;;6244341;28;20188;-71
2021/06/30 08:49:19;;;;;;;0.80;0.80;;;20.00;93.00;;;;;;6243732;28;20180;-71
2021/06/30 08:52:21;;;;;;;1.90;1.00;;;20.00;93.00;;;;;;6244314;28;20188;-71
2021/06/30 08:55:24;;;;;;;1.00;1.00;;;20.00;92.90;;;;;;6244601;28;20191;-71
2021/06/30 08:58:26;;;;;;;1.60;1.30;;;20.10;92.80;;;;;;6244557;28;20688;-71
2021/06/30 09:01:31;;;;;;;1.60;0.90;;;20.10;92.80;;;;;;6242974;28;20189;-71
2021/06/30 09:04:39;;;;;;;4.93;1.23;;;20.10;92.70;;;;;;6253163;28;20314;-71
2021/06/30 09:07:41;;;;;;;1.93;1.10;;;20.20;92.90;;;;;;6255814;28;20202;-71
2021/06/30 09:10:44;;;;;;;1.10;1.00;;;20.30;92.60;;;;;;6274020;28;20183;-71
2021/06/30 09:13:49;;;;;;;0.90;0.90;;;20.30;92.60;;;;;;6273215;28;20626;-71
2021/06/30 09:17:03;;;;;;;2.07;1.03;;;20.40;92.80;;;;;;6256039;28;20677;-71
2021/06/30 09:20:08;;;;;;;3.33;1.00;;;20.50;92.60;;;;;;6256308;28;20225;-71
2021/06/30 09:23:11;;;;;;;2.43;1.00;;;20.50;92.40;;;;;;6256103;28;20618;-71
2021/06/30 09:26:14;;;;;;;2.20;1.20;;;20.50;92.50;;;;;;6273784;28;20549;-71
2021/06/30 09:29:18;;;;;;;2.83;0.87;;;20.40;92.20;;;;;;6273023;28;20199;-71
2021/06/30 09:32:20;;;;;;;0.83;0.83;;;20.40;92.40;;;;;;6273390;28;20555;-71
2021/06/30 09:35:27;;;;;;;0.97;0.90;;;20.50;92.40;;;;;;6239374;28;20195;-71
2021/06/30 09:38:34;;;;;;;1.30;1.20;;;20.50;92.20;;;;;;6255035;28;20218;-71
2021/06/30 09:41:38;;;;;;;1.20;1.10;;;20.60;91.70;;;;;;6273086;28;20190;-71
2021/06/30 09:44:44;;;;;;;1.37;1.13;;;20.60;91.60;;;;;;6255220;28;20213;-71
2021/06/30 09:47:54;;;;;;;2.30;1.00;;;20.60;91.40;;;;;;6273205;28;20182;-71
2021/06/30 09:50:58;;;;;;;1.10;0.97;;;20.60;91.40;;;;;;6254784;28;20192;-71
2021/06/30 09:54:09;;;;;;;0.97;0.97;;;20.60;91.40;;;;;;6255368;28;20199;-71
2021/06/30 09:57:14;;;;;;;0.97;0.97;;;20.70;91.30;;;;;;6272719;28;20873;-71
2021/06/30 10:00:18;;;;;;;1.20;1.10;;;20.80;90.80;;;;;;6272418;28;20528;-71
2021/06/30 10:03:47;;;;;;;0.97;0.97;;;20.80;91.00;;;;;;6272726;28;20219;-71
2021/06/30 10:06:49;;;;;;;1.47;1.20;;;21.00;90.70;;;;;;6268777;28;20206;-71
2021/06/30 10:09:51;;;;;;;2.80;1.43;;;21.00;91.10;;;;;;6272616;28;20219;-71
2021/06/30 10:12:53;;;;;;;1.30;1.20;;;21.00;91.10;;;;;;6254217;28;20244;-71
2021/06/30 10:15:56;;;;;;;2.17;1.30;;;21.00;91.10;;;;;;6254193;28;20195;-71
2021/06/30 10:18:59;;;;;;;1.33;0.97;;;21.00;91.20;;;;;;6254843;28;20202;-71
2021/06/30 10:22:04;;;;;;;1.27;1.20;;;21.00;90.90;;;;;;6271701;28;20260;-71
2021/06/30 10:25:07;;;;;;;1.50;1.10;;;21.20;90.70;;;;;;6272216;28;20552;-71
2021/06/30 10:28:09;;;;;;;1.00;0.90;;;21.30;90.40;;;;;;6253878;28;20297;-72
2021/06/30 10:31:12;;;;;;;1.10;1.00;;;21.60;90.50;;;;;;6272266;28;20187;-72
2021/06/30 10:34:15;;;;;;;1.57;1.10;;;22.00;90.40;;;;;;6254206;28;20190;-72
2021/06/30 10:37:26;;;;;;;1.10;1.00;;;22.60;89.00;;;;;;6253585;28;20292;-72
2021/06/30 10:40:31;;;;;;;1.53;1.00;;;22.90;85.60;;;;;;6271703;28;20329;-72
2021/06/30 10:44:07;;;;;;;1.00;0.90;;;23.00;84.30;;;;;;6254301;28;20739;-72
2021/06/30 10:47:27;;;;;;;1.10;1.10;;;23.10;83.00;;;;;;6273260;28;20176;-72
2021/06/30 10:50:38;;;;;;;1.10;1.00;;;23.00;82.00;;;;;;6253535;28;20188;-72
2021/06/30 10:53:40;;;;;;;0.83;0.83;;;22.90;81.40;;;;;;6271542;28;20192;-72
2021/06/30 10:56:42;;;;;;;1.37;0.90;;;22.90;82.60;;;;;;6253896;28;20301;-72
2021/06/30 11:00:06;;;;;;;4.43;1.00;;;22.90;81.40;;;;;;6253828;28;20198;-72
2021/06/30 11:03:25;;;;;;;1.03;0.80;;;22.80;82.10;;;;;;6253504;28;20190;-72
2021/06/30 11:06:31;;;;;;;0.83;0.77;;;22.70;80.60;;;;;;6244959;28;20228;-72
2021/06/30 11:09:33;;;;;;;0.80;0.80;;;22.60;79.90;;;;;;6246336;28;20177;-72
2021/06/30 11:13:04;;;;;;;1.40;0.70;;;22.40;79.90;;;;;;6245869;28;20567;-72
2021/06/30 11:16:07;;;;;;;1.50;0.60;;;22.40;80.10;;;;;;6233799;28;20204;-72
2021/06/30 11:19:17;;;;;;;0.60;0.60;;;22.30;80.10;;;;;;6224831;28;20200;-72
2021/06/30 11:22:25;;;;;;;0.77;0.77;;;22.40;80.30;;;;;;6221505;28;20217;-72
2021/06/30 11:25:27;;;;;;;2.10;0.90;;;22.30;81.10;;;;;;6220443;28;20196;-72
2021/06/30 11:28:37;;;;;;;0.63;0.63;;;22.30;80.90;;;;;;6232679;28;20663;-72
2021/06/30 11:31:39;;;;;;;2.00;0.80;;;22.40;80.60;;;;;;6246149;28;20192;-72
2021/06/30 11:34:42;;;;;;;1.47;0.80;;;22.50;80.70;;;;;;6245552;28;20199;-72
2021/06/30 11:37:47;;;;;;;0.87;0.87;;;22.60;80.70;;;;;;6244480;28;20212;-72
2021/06/30 11:40:55;;;;;;;0.80;0.80;;;22.90;81.00;;;;;;6245837;28;20181;-72
2021/06/30 11:43:58;;;;;;;1.20;0.90;;;23.20;79.90;;;;;;6244007;28;20663;-72
2021/06/30 11:47:06;;;;;;;2.00;0.80;;;23.40;77.00;;;;;;6244489;28;20192;-72
2021/06/30 11:50:16;;;;;;;2.87;0.77;;;23.70;77.20;;;;;;6245738;28;20200;-72
2021/06/30 11:53:36;;;;;;;1.97;1.00;;;24.00;76.70;;;;;;6245343;28;20172;-72
2021/06/30 11:56:40;;;;;;;0.70;0.70;;;24.70;74.90;;;;;;6244935;28;20184;-72
2021/06/30 11:59:42;;;;;;;1.93;0.63;;;25.50;73.20;;;;;;6243806;28;20289;-72
2021/06/30 12:02:57;;;;;;;1.40;0.80;;;26.10;69.00;;;;;;6244315;28;20194;-72
2021/06/30 12:05:59;;;;;;;0.90;0.77;;;26.40;65.10;;;;;;6243620;28;20363;-72
2021/06/30 12:09:09;;;;;;;0.98;0.80;;;26.60;65.40;;;;;;6243857;28;20200;-72
2021/06/30 12:12:12;;;;;;;0.68;0.68;;;26.80;65.00;;;;;;6243783;28;20279;-72
2021/06/30 12:15:15;;;;;;;0.80;0.80;;;27.10;64.10;;;;;;6244145;28;20202;-72
2021/06/30 12:18:22;;;;;;;2.40;0.90;;;27.10;63.70;;;;;;6244019;28;20247;-72
2021/06/30 12:21:35;;;;;;;1.20;1.10;;;26.60;63.30;;;;;;6245277;28;20172;-72
2021/06/30 12:24:39;;;;;;;0.90;0.90;;;26.60;64.10;;;;;;6243961;28;20182;-72
2021/06/30 12:27:44;;;;;;;0.90;0.90;;;26.90;62.80;;;;;;6245164;28;20188;-72
2021/06/30 12:30:47;;;;;;;2.13;0.90;;;27.10;61.40;;;;;;6244171;28;20628;-72
2021/06/30 12:33:50;;;;;;;2.47;0.93;;;27.10;61.60;;;;;;6244581;28;20192;-72
2021/06/30 12:36:52;;;;;;;2.63;0.93;;;27.00;61.90;;;;;;6243538;28;20282;-72
2021/06/30 12:40:00;;;;;;;1.05;1.00;;;26.50;61.10;;;;;;6228307;28;20644;-72
2021/06/30 12:43:04;;;;;;;1.67;0.70;;;26.20;62.00;;;;;;6223641;28;20283;-72
2021/06/30 12:46:17;;;;;;;1.20;0.93;;;25.80;63.40;;;;;;6224157;28;20277;-72
2021/06/30 12:49:19;;;;;;;1.15;0.90;;;25.50;64.70;;;;;;6223829;28;20204;-72
2021/06/30 12:52:22;;;;;;;2.10;0.82;;;25.30;65.10;;;;;;6223872;28;20734;-72
2021/06/30 12:55:25;;;;;;;2.40;1.00;;;25.00;66.20;;;;;;6223960;28;20291;-72
2021/06/30 12:58:49;;;;;;;1.20;0.90;;;24.80;66.30;;;;;;6236782;28;20712;-72
2021/06/30 13:01:51;;;;;;;0.60;0.60;;;24.80;66.30;;;;;;6249287;28;20559;-72
2021/06/30 13:04:53;;;;;;;1.33;0.90;;;24.70;66.00;;;;;;6258459;28;20639;-72
2021/06/30 13:07:56;;;;;;;1.50;0.90;;;24.50;66.50;;;;;;6256160;28;20203;-72
2021/06/30 13:11:16;;;;;;;2.50;0.90;;;24.50;66.10;;;;;;6273662;28;20187;-72
2021/06/30 13:14:30;;;;;;;1.13;0.90;;;24.50;65.80;;;;;;6256191;28;20520;-72
2021/06/30 13:17:32;;;;;;;0.60;0.60;;;25.10;69.10;;;;;;6274467;28;20880;-72
2021/06/30 13:20:35;;;;;;;0.70;0.68;;;25.90;64.50;;;;;;6255273;28;20202;-72
2021/06/30 13:23:43;;;;;;;0.82;0.52;;;26.30;61.70;;;;;;6239330;28;20235;-72
2021/06/30 13:34:25;;;;;;;0.65;0.65;;;26.70;60.00;;;;;;6246838;28;20561;-72
2021/06/30 13:37:27;;;;;;;0.68;0.57;;;26.60;60.80;;;;;;6231019;28;20240;-72
2021/06/30 13:40:32;;;;;;;0.90;0.68;;;26.50;61.30;;;;;;6230357;28;20184;-72
2021/06/30 13:43:34;;;;;;;1.73;0.57;;;26.40;62.20;;;;;;6230983;28;20525;-72
2021/06/30 13:46:37;;;;;;;1.48;0.50;;;26.40;61.90;;;;;;6230644;28;20188;-72
2021/06/30 13:49:39;;;;;;;1.90;0.80;;;26.30;62.20;;;;;;6246901;28;20659;-72
2021/06/30 13:52:41;;;;;;;0.70;0.70;;;26.20;62.60;;;;;;6248269;28;20758;-72
2021/06/30 13:55:45;;;;;;;1.88;0.80;;;26.10;64.20;;;;;;6247840;28;20192;-71
2021/06/30 13:58:48;;;;;;;0.70;0.70;;;26.00;64.50;;;;;;6246899;28;20211;-71
2021/06/30 14:01:50;;;;;;;1.98;0.68;;;25.80;64.90;;;;;;6246659;28;20184;-71
2021/06/30 14:04:53;;;;;;;0.80;0.80;;;25.60;64.20;;;;;;6246181;28;20373;-71
2021/06/30 14:07:55;;;;;;;0.55;0.50;;;25.40;64.90;;;;;;6248049;28;20579;-71
2021/06/30 14:10:59;;;;;;;1.95;0.90;;;25.40;65.40;;;;;;6247620;28;20203;-71
2021/06/30 14:14:01;;;;;;;1.48;0.70;;;25.30;66.60;;;;;;6246504;28;20209;-71
2021/06/30 14:17:04;;;;;;;2.70;0.95;;;25.10;67.10;;;;;;6247032;28;20192;-71
2021/06/30 14:20:10;;;;;;;2.93;0.90;;;25.10;67.50;;;;;;6246487;28;20192;-71
2021/06/30 14:23:15;;;;;;;0.65;0.65;;;25.10;67.70;;;;;;6247640;28;20200;-71
2021/06/30 14:26:18;;;;;;;1.00;0.90;;;25.10;67.20;;;;;;6245889;28;20270;-71
2021/06/30 14:29:20;;;;;;;1.47;0.97;;;25.00;66.60;;;;;;6253486;28;20280;-72
2021/06/30 14:32:24;;;;;;;3.93;1.00;;;25.00;65.90;;;;;;6271695;28;20191;-71
2021/06/30 14:35:27;;;;;;;2.42;0.80;;;25.40;65.50;;;;;;6235934;28;20195;-71
2021/06/30 14:38:29;;;;;;;1.23;0.80;;;26.10;65.10;;;;;;6252885;28;20209;-65
2021/06/30 14:41:31;;;;;;;1.58;0.82;;;27.00;63.20;;;;;;6272570;28;20196;-68
2021/06/30 14:44:34;;;;;;;0.85;0.85;;;27.60;60.30;;;;;;6272075;28;20199;-68
2021/06/30 14:47:36;;;;;;;0.70;0.70;;;27.50;60.20;;;;;;6271170;28;20605;-68
2021/06/30 14:50:39;;;;;;;1.58;0.70;;;27.00;61.30;;;;;;6254339;28;20206;-68
2021/06/30 14:53:41;;;;;;;1.02;0.80;;;26.60;62.80;;;;;;6272221;28;20191;-66
2021/06/30 14:56:43;;;;;;;1.02;0.70;;;26.00;63.60;;;;;;6254560;28;20245;-66
2021/06/30 14:59:47;;;;;;;1.50;0.70;;;25.60;64.90;;;;;;6272478;28;20207;-68
2021/06/30 15:02:50;;;;;;;0.93;0.80;;;25.10;65.00;;;;;;6253175;28;20184;-67
2021/06/30 15:05:53;;;;;;;1.10;0.80;;;24.80;66.30;;;;;;6270962;28;20675;-67
2021/06/30 15:08:55;;;;;;;1.75;0.70;;;24.50;67.90;;;;;;6271110;28;20184;-68
2021/06/30 15:11:58;;;;;;;0.60;0.60;;;24.40;68.50;;;;;;6254529;28;20199;-68
2021/06/30 15:15:02;;;;;;;0.93;0.60;;;24.20;68.70;;;;;;6271486;28;20194;-71
2021/06/30 15:18:04;;;;;;;2.93;0.77;;;24.00;68.90;;;;;;6244623;28;20521;-72
2021/06/30 15:21:07;;;;;;;0.87;0.70;;;23.70;69.40;;;;;;6244886;28;20220;-72
2021/06/30 15:24:09;;;;;;;1.70;0.73;;;23.40;70.30;;;;;;6245614;28;20575;-71
2021/06/30 15:27:11;;;;;;;0.77;0.63;;;23.00;71.20;;;;;;6249302;28;20664;-71
2021/06/30 15:30:15;;;;;;;1.80;0.60;;;22.80;71.80;;;;;;6253231;28;20187;-71
2021/06/30 15:33:17;;;;;;;0.63;0.60;;;22.60;72.20;;;;;;6270155;28;20187;-71
2021/06/30 15:36:20;;;;;;;1.60;0.60;;;22.40;74.70;;;;;;6252906;28;20200;-71
2021/06/30 15:39:22;;;;;;;4.97;0.70;;;22.10;74.80;;;;;;6252294;28;20226;-72
2021/06/30 15:42:25;;;;;;;0.40;0.40;;;21.80;75.80;;;;;;6270367;28;20186;-72
2021/06/30 15:45:28;;;;;;;0.60;0.40;;;21.50;75.90;;;;;;6252237;28;20568;-72
2021/06/30 15:48:30;;;;;;;2.67;0.50;;;21.40;76.70;;;;;;6270174;28;20535;-72
2021/06/30 15:51:33;;;;;;;0.30;0.30;;;21.20;77.90;;;;;;6252663;28;20211;-72
2021/06/30 15:54:36;;;;;;;0.40;0.40;;;21.10;78.30;;;;;;6269774;28;20554;-72
2021/06/30 15:57:39;;;;;;;4.03;0.40;;;21.00;79.50;;;;;;6252225;28;20302;-72
2021/06/30 16:00:42;;;;;;;2.60;0.60;;;20.80;80.60;;;;;;6269454;28;20183;-71
2021/06/30 16:03:44;;;;;;;0.20;0.20;;;20.60;82.30;;;;;;6251787;28;20678;-71
2021/06/30 16:06:49;;;;;;;0.40;0.30;;;20.30;84.60;;;;;;6270038;28;20186;-71
2021/06/30 16:09:51;;;;;;;1.13;0.30;;;20.00;85.90;;;;;;6251821;28;20187;-71
2021/06/30 16:12:54;;;;;;;0.30;0.30;;;19.50;87.20;;;;;;6252001;28;20777;-71
2021/06/30 16:15:56;;;;;;;0.60;0.27;;;19.30;90.10;;;;;;6269718;28;20241;-71